Time;durP1;ratioP1;P1;durP2;ratioP2;P2;SDS_P1;SDS_P2;PMS_P1;PMS_P2;Temp;Humidity;BMP_temperature;BMP_pressure;BME280_temperature;BME280_humidity;BME280_pressure;Samples;Min_cycle;Max_cycle;Signal;HPM_P1;HPM_P2
2022/03/12 00:02:15;;;;;;;12.55;4.37;;;;;;;2.21;24.76;100187.44;4475442;31;20444;-77
2022/03/12 00:04:41;;;;;;;13.82;4.28;;;;;;;2.28;24.74;100183.97;4502968;31;20117;-79
2022/03/12 00:07:09;;;;;;;12.27;4.32;;;;;;;2.29;24.37;100185.69;4502689;31;20096;-79
2022/03/12 00:09:35;;;;;;;11.82;4.30;;;;;;;2.24;24.42;100190.03;4502743;31;20114;-78
2022/03/12 00:12:01;;;;;;;15.88;5.30;;;;;;;2.25;24.23;100184.81;4488392;31;20448;-77
2022/03/12 00:14:28;;;;;;;15.35;4.53;;;;;;;2.26;23.99;100185.69;4502719;31;20387;-79
2022/03/12 00:16:53;;;;;;;15.40;4.72;;;;;;;2.35;23.81;100183.97;4502752;31;20141;-78
2022/03/12 00:19:21;;;;;;;12.52;4.30;;;;;;;2.20;23.93;100191.75;4488157;31;20096;-79
2022/03/12 00:21:48;;;;;;;15.25;4.62;;;;;;;2.23;24.02;100198.69;4502836;31;20403;-77
2022/03/12 00:24:15;;;;;;;15.05;4.32;;;;;;;2.20;24.17;100199.53;4502565;31;20136;-78
2022/03/12 00:26:46;;;;;;;13.38;3.92;;;;;;;2.24;24.22;100197.81;4502542;31;20364;-79
2022/03/12 00:29:15;;;;;;;13.10;4.10;;;;;;;2.23;24.00;100185.69;4488472;31;20126;-79
2022/03/12 00:31:42;;;;;;;14.23;4.50;;;;;;;2.24;23.96;100183.13;4497651;31;20577;-78
2022/03/12 00:34:08;;;;;;;13.50;4.43;;;;;;;2.28;23.42;100183.97;4494189;31;20467;-76
2022/03/12 00:36:34;;;;;;;13.65;4.82;;;;;;;2.21;23.51;100183.09;4479438;31;20108;-78
2022/03/12 00:38:59;;;;;;;13.77;4.47;;;;;;;2.20;23.52;100196.94;4490801;31;20507;-81
2022/03/12 00:41:25;;;;;;;13.23;4.20;;;;;;;2.08;23.67;100196.94;4492050;31;20122;-80
2022/03/12 00:43:51;;;;;;;14.50;4.40;;;;;;;2.08;23.37;100191.72;4489484;31;20488;-83
2022/03/12 00:46:17;;;;;;;11.80;4.03;;;;;;;2.17;23.32;100183.97;4496820;31;20115;-83
2022/03/12 00:48:43;;;;;;;13.75;4.87;;;;;;;2.07;23.46;100187.41;4491310;31;20176;-84
2022/03/12 00:51:09;;;;;;;14.75;4.30;;;;;;;2.13;23.45;100193.47;4489523;31;20148;-83
2022/03/12 00:53:36;;;;;;;13.10;4.05;;;;;;;2.11;24.43;100189.16;4494702;31;20080;-83
2022/03/12 00:56:03;;;;;;;12.50;4.10;;;;;;;2.07;23.97;100185.66;4487608;31;20119;-83
2022/03/12 00:58:28;;;;;;;12.82;4.10;;;;;;;1.91;23.75;100196.87;4486848;31;20123;-83
2022/03/12 01:00:53;;;;;;;12.00;3.40;;;;;;;2.01;23.67;100196.06;4485633;32;20092;-82
2022/03/12 01:03:19;;;;;;;14.85;4.12;;;;;;;2.14;23.51;100194.34;4486619;31;20146;-83
2022/03/12 01:05:50;;;;;;;14.02;4.20;;;;;;;2.08;23.50;100187.38;4485505;32;20116;-83
2022/03/12 01:08:17;;;;;;;12.32;4.32;;;;;;;2.02;23.63;100189.13;4485904;32;20626;-82
2022/03/12 01:10:43;;;;;;;11.80;3.87;;;;;;;2.06;23.53;100188.25;4486242;31;20187;-82
2022/03/12 01:13:10;;;;;;;11.57;3.60;;;;;;;2.04;23.67;100184.78;4485211;31;20167;-83
2022/03/12 01:15:36;;;;;;;13.23;3.78;;;;;;;2.04;23.71;100183.03;4485409;31;20149;-83
2022/03/12 01:18:02;;;;;;;12.00;3.75;;;;;;;2.02;23.85;100183.91;4485192;31;20088;-83
2022/03/12 01:20:28;;;;;;;15.32;3.95;;;;;;;1.96;23.99;100179.56;4485297;31;20107;-82
2022/03/12 01:22:53;;;;;;;11.85;3.92;;;;;;;1.90;24.20;100184.75;4485119;32;20072;-83
2022/03/12 01:25:19;;;;;;;13.55;3.92;;;;;;;1.87;24.33;100185.59;4485389;31;20096;-82
2022/03/12 01:27:44;;;;;;;13.77;3.90;;;;;;;1.95;24.20;100181.31;4486802;31;20092;-82
2022/03/12 01:30:10;;;;;;;14.10;4.20;;;;;;;1.77;24.76;100189.87;4486204;31;20088;-83
2022/03/12 01:32:36;;;;;;;10.48;3.87;;;;;;;1.88;24.87;100196.87;4486324;32;20072;-82
2022/03/12 01:35:03;;;;;;;12.35;3.97;;;;;;;1.93;24.89;100192.53;4488050;31;20514;-82
2022/03/12 01:37:28;;;;;;;12.82;4.03;;;;;;;1.96;24.99;100189.97;4486864;32;20122;-83
2022/03/12 01:39:54;;;;;;;12.43;3.90;;;;;;;1.92;25.02;100186.47;4488092;31;20080;-83
2022/03/12 01:42:21;;;;;;;11.80;3.80;;;;;;;1.95;24.85;100190.81;4488032;31;20139;-83
2022/03/12 01:44:47;;;;;;;11.35;3.72;;;;;;;1.95;24.96;100196.00;4488857;31;20091;-83
2022/03/12 01:47:15;;;;;;;12.68;4.43;;;;;;;1.97;24.81;100196.91;4473656;32;20127;-84
2022/03/12 01:49:42;;;;;;;12.45;3.75;;;;;;;1.93;24.67;100192.53;4487032;32;20092;-84
2022/03/12 01:52:07;;;;;;;12.85;4.05;;;;;;;1.94;24.44;100197.75;4487952;31;20443;-84
2022/03/12 01:54:33;;;;;;;13.82;3.80;;;;;;;1.94;24.45;100204.69;4488147;31;20112;-85
2022/03/12 01:56:59;;;;;;;11.57;3.65;;;;;;;1.82;24.68;100202.91;4487972;31;20157;-83
2022/03/12 01:59:25;;;;;;;12.60;3.90;;;;;;;1.86;24.57;100196.00;4487982;32;20090;-84
2022/03/12 02:01:54;;;;;;;13.73;3.80;;;;;;;1.86;24.65;100202.06;4488607;31;20428;-83
2022/03/12 02:04:22;;;;;;;12.25;3.62;;;;;;;1.88;24.75;100207.28;4488017;31;20379;-85
2022/03/12 02:06:48;;;;;;;11.23;3.53;;;;;;;1.87;24.86;100202.91;4488320;31;20144;-85
2022/03/12 02:09:17;;;;;;;11.12;3.47;;;;;;;1.98;24.70;100190.84;4487005;32;20088;-84
2022/03/12 02:11:50;;;;;;;11.45;3.90;;;;;;;1.90;24.85;100197.75;4488195;31;20076;-83
2022/03/12 02:14:21;;;;;;;14.43;3.65;;;;;;;1.89;24.94;100204.69;4488333;31;20088;-84
2022/03/12 02:16:53;;;;;;;13.32;4.07;;;;;;;1.71;25.40;100194.22;4488216;31;20470;-84
2022/03/12 02:19:20;;;;;;;11.88;3.62;;;;;;;1.85;24.93;100199.44;4488616;31;20092;-84
2022/03/12 02:22:10;;;;;;;11.75;3.62;;;;;;;1.79;24.95;100191.62;4486720;32;20399;-84
2022/03/12 02:24:36;;;;;;;9.40;3.33;;;;;;;1.80;25.18;100196.84;4487945;31;20148;-84
2022/03/12 02:27:04;;;;;;;11.80;3.50;;;;;;;1.53;25.37;100203.66;4486623;32;20108;-85
2022/03/12 02:29:30;;;;;;;13.23;3.58;;;;;;;1.65;25.09;100207.19;4487678;31;20444;-85
2022/03/12 02:32:06;;;;;;;13.02;3.42;;;;;;;1.71;25.03;100209.78;4488200;31;20102;-84
2022/03/12 02:34:53;;;;;;;11.80;3.65;;;;;;;1.71;24.99;100208.06;4499097;31;20155;-84
2022/03/12 02:37:30;;;;;;;13.00;4.10;;;;;;;1.67;25.09;100203.72;4503681;31;20155;-85
2022/03/12 02:40:06;;;;;;;12.27;4.43;;;;;;;1.60;25.19;100203.69;4503839;31;20076;-84
2022/03/12 02:42:36;;;;;;;10.93;3.53;;;;;;;1.63;25.63;100199.38;4502957;31;20562;-83
2022/03/12 02:45:04;;;;;;;9.85;3.53;;;;;;;1.71;25.71;100197.66;4503131;31;20088;-84
2022/03/12 02:47:31;;;;;;;13.57;4.10;;;;;;;1.60;25.74;100208.88;4503424;31;20171;-84
2022/03/12 02:49:59;;;;;;;10.20;2.97;;;;;;;1.68;25.54;100212.38;4487635;31;20155;-84
2022/03/12 02:52:27;;;;;;;10.65;3.90;;;;;;;1.65;25.58;100205.44;4503076;31;20104;-84
2022/03/12 02:54:54;;;;;;;10.48;3.42;;;;;;;1.69;25.57;100214.97;4489139;31;20459;-84
2022/03/12 02:57:25;;;;;;;11.80;3.80;;;;;;;1.73;25.69;100205.47;4487632;31;20130;-83
2022/03/12 02:59:53;;;;;;;11.38;3.50;;;;;;;1.73;25.55;100213.25;4489975;31;20076;-83
2022/03/12 03:02:25;;;;;;;12.35;3.95;;;;;;;1.70;25.64;100215.84;4489431;31;20085;-83
2022/03/12 03:04:51;;;;;;;11.90;4.20;;;;;;;1.73;25.59;100210.66;4503724;31;20454;-83
2022/03/12 03:07:17;;;;;;;10.82;3.50;;;;;;;1.72;25.61;100214.09;4502110;31;20107;-83
2022/03/12 03:09:42;;;;;;;12.13;3.45;;;;;;;1.73;25.85;100214.13;4489235;31;20229;-84
2022/03/12 03:12:10;;;;;;;11.68;3.55;;;;;;;1.75;25.45;100219.34;4503555;31;20080;-83
2022/03/12 03:14:41;;;;;;;11.10;3.50;;;;;;;1.72;25.39;100214.09;4503620;31;20100;-83
2022/03/12 03:17:10;;;;;;;12.05;3.87;;;;;;;1.73;25.50;100213.25;4503545;31;20084;-84
2022/03/12 03:19:35;;;;;;;12.95;3.40;;;;;;;1.57;25.71;100222.72;4489647;31;20110;-83
2022/03/12 03:22:01;;;;;;;10.55;3.87;;;;;;;1.66;25.61;100229.69;4502758;31;20115;-83
2022/03/12 03:24:26;;;;;;;13.23;3.40;;;;;;;1.68;25.81;100215.84;4502391;31;20093;-84
2022/03/12 03:26:56;;;;;;;10.65;3.50;;;;;;;1.73;25.74;100216.72;4488879;31;20152;-84
2022/03/12 03:29:24;;;;;;;12.88;3.80;;;;;;;1.63;25.93;100216.69;4503456;31;20079;-84
2022/03/12 03:31:50;;;;;;;11.27;3.20;;;;;;;1.73;25.69;100219.31;4503515;31;20088;-83
2022/03/12 03:34:17;;;;;;;10.55;3.30;;;;;;;1.68;25.90;100212.38;4503045;31;20152;-83
2022/03/12 03:36:42;;;;;;;9.35;3.17;;;;;;;1.74;26.16;100215.03;4503175;31;20093;-83
2022/03/12 03:39:08;;;;;;;10.25;3.60;;;;;;;1.66;26.50;100220.19;4488367;31;20072;-83
2022/03/12 03:41:34;;;;;;;11.90;3.80;;;;;;;1.69;26.55;100222.78;4501941;31;20110;-82
2022/03/12 03:43:59;;;;;;;11.85;3.30;;;;;;;1.73;25.96;100226.25;4502320;31;20380;-82
2022/03/12 03:46:25;;;;;;;11.95;3.50;;;;;;;1.71;25.92;100217.59;4487429;31;20351;-82
2022/03/12 03:48:52;;;;;;;13.40;3.47;;;;;;;1.74;26.03;100215.03;4487491;31;20084;-82
2022/03/12 03:51:19;;;;;;;9.80;3.05;;;;;;;1.67;26.31;100223.63;4487373;31;20085;-84
2022/03/12 03:53:44;;;;;;;12.48;3.97;;;;;;;1.61;26.27;100219.28;4486099;32;20092;-84
2022/03/12 03:56:10;;;;;;;11.55;3.72;;;;;;;1.56;26.30;100216.66;4491324;31;20117;-84
2022/03/12 03:58:36;;;;;;;12.15;3.58;;;;;;;1.55;26.45;100224.44;4495733;31;20148;-84
2022/03/12 04:01:12;;;;;;;10.25;3.47;;;;;;;1.61;26.21;100226.22;4488735;31;20092;-84
2022/03/12 04:03:41;;;;;;;9.05;3.20;;;;;;;1.60;26.40;100216.66;4503201;31;20114;-84
2022/03/12 04:06:06;;;;;;;13.45;3.55;;;;;;;1.64;26.60;100221.00;4498885;31;20114;-85
2022/03/12 04:08:33;;;;;;;9.95;3.22;;;;;;;1.68;26.68;100227.94;4487358;31;20088;-85
2022/03/12 04:11:04;;;;;;;12.05;3.15;;;;;;;1.67;26.53;100219.31;4487022;31;20084;-85
2022/03/12 04:13:30;;;;;;;10.00;2.95;;;;;;;1.58;26.77;100216.66;4487827;31;20525;-85
2022/03/12 04:15:58;;;;;;;13.75;3.67;;;;;;;1.43;26.67;100222.66;4485901;32;20111;-85
2022/03/12 04:18:24;;;;;;;11.60;3.28;;;;;;;1.42;26.76;100209.66;4486908;32;20123;-85
2022/03/12 04:20:50;;;;;;;11.90;3.70;;;;;;;1.45;26.70;100222.63;4472726;32;20080;-85
2022/03/12 04:23:21;;;;;;;10.85;2.90;;;;;;;1.46;26.61;100222.66;4472771;32;20126;-84
2022/03/12 04:25:52;;;;;;;10.77;3.87;;;;;;;1.46;26.56;100221.78;4487068;32;20452;-85
2022/03/12 04:28:18;;;;;;;10.32;2.83;;;;;;;1.43;26.65;100219.16;4486982;32;20149;-84
2022/03/12 04:30:45;;;;;;;10.70;3.10;;;;;;;1.47;26.79;100226.09;4472604;31;20110;-85
2022/03/12 04:33:11;;;;;;;11.38;3.37;;;;;;;1.33;27.08;100221.72;4472689;32;20120;-84
2022/03/12 04:35:38;;;;;;;11.40;3.62;;;;;;;1.41;27.00;100220.88;4486915;32;20087;-84
2022/03/12 04:38:04;;;;;;;11.25;3.45;;;;;;;1.42;26.92;100214.84;4486767;32;20100;-83
2022/03/12 04:40:30;;;;;;;11.40;3.47;;;;;;;1.48;26.81;100214.88;4486718;32;20111;-84
2022/03/12 04:42:55;;;;;;;10.98;3.35;;;;;;;1.50;26.98;100228.75;4485656;32;20722;-84
2022/03/12 04:45:25;;;;;;;11.98;3.83;;;;;;;1.54;27.39;100227.88;4486903;32;20178;-83
2022/03/12 04:47:51;;;;;;;12.52;3.58;;;;;;;1.38;27.16;100225.22;4499864;31;20113;-83
2022/03/12 04:50:18;;;;;;;13.10;4.00;;;;;;;1.43;27.58;100229.56;4502755;31;20084;-83
2022/03/12 04:52:45;;;;;;;9.57;3.03;;;;;;;1.42;27.40;100233.03;4502164;31;20100;-83
2022/03/12 04:55:14;;;;;;;10.75;3.58;;;;;;;1.46;27.46;100227.00;4480370;32;20096;-83
2022/03/12 04:57:40;;;;;;;10.30;3.12;;;;;;;1.51;27.10;100228.75;4487146;31;20160;-83
2022/03/12 05:00:09;;;;;;;10.10;3.30;;;;;;;1.45;27.38;100227.84;4472270;32;20084;-83
2022/03/12 05:02:35;;;;;;;10.07;3.25;;;;;;;1.44;27.16;100223.50;4485351;32;20176;-83
2022/03/12 05:05:01;;;;;;;12.52;3.90;;;;;;;1.40;27.21;100227.81;4474232;31;20368;-83
2022/03/12 05:07:26;;;;;;;10.13;2.87;;;;;;;1.51;27.16;100227.91;4487015;31;20084;-83
2022/03/12 05:09:54;;;;;;;11.48;3.17;;;;;;;1.49;27.34;100235.66;4502117;31;20076;-83
2022/03/12 05:12:23;;;;;;;;;;;;;;;1.51;27.26;100239.12;4502726;31;20111;-83
2022/03/12 05:14:53;;;;;;;13.48;3.75;;;;;;;1.57;27.09;100233.97;4502469;31;19988;-82
2022/03/12 05:17:26;;;;;;;11.10;2.97;;;;;;;1.33;27.38;100239.03;4475401;31;20183;-82
2022/03/12 05:19:52;;;;;;;11.80;3.62;;;;;;;1.55;27.23;100237.44;4488583;31;20080;-81
2022/03/12 05:22:17;;;;;;;10.48;3.50;;;;;;;1.60;27.11;100240.03;4502049;31;20121;-82
2022/03/12 05:24:43;;;;;;;11.63;3.45;;;;;;;1.69;27.11;100238.34;4487812;31;20108;-83
2022/03/12 05:27:14;;;;;;;10.75;3.05;;;;;;;1.73;27.00;100234.91;4502170;31;20105;-83
2022/03/12 05:29:41;;;;;;;10.93;3.20;;;;;;;1.87;27.19;100241.91;4487850;31;20521;-84
2022/03/12 05:32:12;;;;;;;13.07;3.50;;;;;;;1.98;27.34;100244.56;4502254;31;20168;-84
2022/03/12 05:34:38;;;;;;;10.93;3.28;;;;;;;2.02;27.60;100239.34;4488173;31;20252;-84
2022/03/12 05:37:08;;;;;;;10.68;3.30;;;;;;;2.14;27.14;100238.53;4501814;31;20451;-84
2022/03/12 05:39:34;;;;;;;10.00;3.60;;;;;;;2.10;26.61;100248.03;4486096;31;20099;-83
2022/03/12 05:42:04;;;;;;;10.00;3.58;;;;;;;2.29;26.86;100240.31;4501757;31;20495;-82
2022/03/12 05:44:29;;;;;;;11.02;3.12;;;;;;;2.42;27.23;100238.62;4486401;31;20459;-82
2022/03/12 05:46:55;;;;;;;12.18;3.72;;;;;;;2.51;26.46;100241.22;4501821;31;20072;-83
2022/03/12 05:49:21;;;;;;;12.18;3.65;;;;;;;2.63;25.77;100243.00;4501757;31;20100;-83
2022/03/12 05:51:46;;;;;;;11.93;4.00;;;;;;;2.68;25.82;100239.50;4501496;31;20124;-83
2022/03/12 05:54:12;;;;;;;10.77;3.22;;;;;;;2.77;26.12;100230.84;4501342;31;20092;-83
2022/03/12 05:56:40;;;;;;;10.13;3.12;;;;;;;2.69;26.53;100243.84;4501465;31;20436;-83
2022/03/12 05:59:07;;;;;;;10.45;3.22;;;;;;;2.80;26.22;100241.25;4501455;31;20197;-84
2022/03/12 06:01:33;;;;;;;11.77;3.10;;;;;;;2.99;25.82;100234.28;4496373;31;20128;-84
2022/03/12 06:04:00;;;;;;;11.85;3.47;;;;;;;3.00;25.90;100238.66;4487340;31;20444;-83
2022/03/12 06:06:27;;;;;;;11.07;3.37;;;;;;;3.05;25.21;100236.03;4501754;31;20178;-83
2022/03/12 06:08:57;;;;;;;10.73;3.58;;;;;;;3.03;25.65;100240.37;4487418;31;20103;-83
2022/03/12 06:11:25;;;;;;;12.25;3.37;;;;;;;3.07;25.31;100235.19;4501661;31;20092;-82
2022/03/12 06:13:57;;;;;;;11.38;3.25;;;;;;;3.07;25.29;100237.78;4487024;31;20324;-82
2022/03/12 06:16:24;;;;;;;12.13;3.50;;;;;;;3.23;25.25;100235.16;4490320;31;20495;-82
2022/03/12 06:18:52;;;;;;;11.82;3.37;;;;;;;3.27;25.11;100242.97;4500007;31;20107;-82
2022/03/12 06:21:18;;;;;;;10.43;3.30;;;;;;;3.34;24.87;100236.00;4503668;31;20152;-82
2022/03/12 06:23:43;;;;;;;12.23;3.92;;;;;;;3.36;25.33;100244.66;4489324;31;20100;-82
2022/03/12 06:26:14;;;;;;;11.80;3.60;;;;;;;3.22;25.14;100233.41;4503490;31;20076;-83
2022/03/12 06:28:41;;;;;;;13.82;3.47;;;;;;;3.48;25.08;100236.84;4503629;31;20106;-80
2022/03/12 06:31:07;;;;;;;11.87;3.50;;;;;;;3.42;24.93;100235.97;4502100;31;20118;-83
2022/03/12 06:33:34;;;;;;;11.30;3.80;;;;;;;3.43;25.01;100237.72;4503544;31;20201;-79
2022/03/12 06:36:01;;;;;;;10.63;3.58;;;;;;;3.43;25.03;100240.34;4492585;31;20118;-82
2022/03/12 06:38:26;;;;;;;11.00;3.17;;;;;;;3.52;25.14;100248.13;4487559;32;20080;-82
2022/03/12 06:40:56;;;;;;;15.13;3.80;;;;;;;3.51;24.69;100246.38;4496285;31;20122;-83
2022/03/12 06:43:21;;;;;;;10.75;3.17;;;;;;;3.40;25.09;100258.56;4475796;32;20428;-81
2022/03/12 06:45:48;;;;;;;12.50;3.17;;;;;;;3.51;25.29;100256.81;4495921;31;20140;-80
2022/03/12 06:48:13;;;;;;;13.15;3.35;;;;;;;3.40;25.67;100259.44;4477377;31;20140;-78
2022/03/12 06:50:39;;;;;;;11.63;3.30;;;;;;;3.49;25.53;100255.94;4492307;31;20092;-84
2022/03/12 06:53:06;;;;;;;10.60;3.78;;;;;;;3.42;25.34;100264.63;4503274;31;20088;-76
2022/03/12 06:55:33;;;;;;;10.55;3.28;;;;;;;3.34;25.48;100267.25;4490377;31;20160;-79
2022/03/12 06:57:58;;;;;;;11.30;4.05;;;;;;;3.44;25.38;100265.50;4489486;31;20080;-78
2022/03/12 07:00:26;;;;;;;10.13;3.10;;;;;;;3.47;25.47;100271.56;4500124;31;20457;-79
2022/03/12 07:02:52;;;;;;;;;;;;;;;3.53;25.60;100279.41;4489186;31;20122;-82
2022/03/12 07:05:17;;;;;;;11.23;3.37;;;;;;;3.42;25.71;100280.25;4489007;31;20239;-79
2022/03/12 07:07:43;;;;;;;10.70;3.55;;;;;;;3.53;25.52;100282.00;4478568;32;20084;-80
2022/03/12 07:10:09;;;;;;;12.32;3.30;;;;;;;3.48;25.74;100282.88;4488268;31;20104;-81
2022/03/12 07:12:36;;;;;;;13.73;4.70;;;;;;;3.49;25.72;100280.25;4488157;31;20100;-78
2022/03/12 07:15:05;;;;;;;11.35;3.40;;;;;;;3.52;25.64;100282.88;4486525;32;20122;-75
2022/03/12 07:17:30;;;;;;;15.70;4.05;;;;;;;3.31;26.02;100280.28;4479786;32;20530;-83
2022/03/12 07:19:56;;;;;;;14.68;4.43;;;;;;;3.44;26.24;100286.34;4488266;31;20093;-78
2022/03/12 07:22:21;;;;;;;13.27;4.28;;;;;;;3.43;26.09;100289.81;4492198;31;20128;-82
2022/03/12 07:24:47;;;;;;;10.32;3.75;;;;;;;3.31;26.46;100283.75;4488246;31;20462;-80
2022/03/12 07:27:12;;;;;;;12.15;4.00;;;;;;;3.34;26.78;100285.47;4487428;32;20076;-79
2022/03/12 07:29:38;;;;;;;12.07;4.30;;;;;;;3.62;26.31;100280.25;4470548;32;20145;-79
2022/03/12 07:32:04;;;;;;;11.50;3.80;;;;;;;3.61;26.08;100279.38;4487546;31;20496;-78
2022/03/12 07:34:29;;;;;;;12.30;4.32;;;;;;;3.65;26.19;100273.28;4484807;31;83632;-78
2022/03/12 07:36:54;;;;;;;10.80;3.87;;;;;;;3.63;26.12;100277.66;4473348;32;20454;-79
2022/03/12 07:39:20;;;;;;;13.10;4.37;;;;;;;3.86;25.70;100274.97;4486343;32;20115;-79
2022/03/12 07:41:46;;;;;;;12.75;3.92;;;;;;;3.70;26.04;100262.84;4486027;32;20371;-78
2022/03/12 07:44:11;;;;;;;12.25;4.75;;;;;;;3.76;26.01;100275.00;4486374;32;20451;-79
2022/03/12 07:46:37;;;;;;;13.98;4.35;;;;;;;3.60;26.08;100267.22;4487179;31;20088;-79
2022/03/12 07:49:03;;;;;;;12.52;4.45;;;;;;;3.58;26.47;100263.75;4487245;32;20439;-79
2022/03/12 07:51:30;;;;;;;12.63;3.87;;;;;;;3.73;26.29;100263.72;4486170;32;20100;-78
2022/03/12 07:53:59;;;;;;;10.48;3.78;;;;;;;3.89;26.33;100261.06;4485903;32;20084;-78
2022/03/12 07:56:25;;;;;;;11.82;4.30;;;;;;;4.09;25.81;100251.38;4487258;31;20125;-78
2022/03/12 07:58:50;;;;;;;13.15;3.70;;;;;;;4.09;25.67;100248.78;4487120;31;20093;-78
2022/03/12 08:01:16;;;;;;;12.55;4.07;;;;;;;4.16;26.09;100251.38;4487155;31;20096;-78
2022/03/12 08:03:41;;;;;;;14.40;4.47;;;;;;;4.17;26.02;100253.09;4485911;32;20119;-78
2022/03/12 08:06:08;;;;;;;13.25;4.30;;;;;;;4.09;25.95;100248.78;4485945;32;20124;-78
2022/03/12 08:08:34;;;;;;;9.73;3.47;;;;;;;4.10;25.53;100250.53;4487417;31;20127;-78
2022/03/12 08:13:44;;;;;;;12.18;3.58;;;;;;;4.12;25.52;100258.34;4486146;32;20114;-78
2022/03/12 08:16:13;;;;;;;11.27;3.72;;;;;;;4.30;25.30;100260.00;4487078;31;20096;-78
2022/03/12 08:18:39;;;;;;;10.13;3.58;;;;;;;4.27;25.25;100255.66;4485802;32;20558;-79
2022/03/12 08:21:05;;;;;;;11.38;3.97;;;;;;;4.10;25.41;100254.88;4487029;31;20092;-78
2022/03/12 08:23:31;;;;;;;12.80;4.20;;;;;;;4.13;25.59;100250.53;4485758;32;20139;-78
2022/03/12 08:25:57;;;;;;;12.23;3.65;;;;;;;4.20;25.43;100253.94;4485800;32;20084;-79
2022/03/12 08:28:23;;;;;;;11.93;3.67;;;;;;;4.34;24.88;100249.50;4485787;32;20112;-78
2022/03/12 08:30:49;;;;;;;11.82;3.40;;;;;;;4.40;24.36;100247.75;4472597;32;20157;-78
2022/03/12 08:33:14;;;;;;;11.23;3.30;;;;;;;4.32;24.39;100247.81;4487162;31;20360;-78
2022/03/12 08:35:39;;;;;;;10.57;3.90;;;;;;;4.27;24.05;100253.06;4487109;31;20357;-78
2022/03/12 08:38:05;;;;;;;10.50;3.45;;;;;;;4.26;24.40;100247.84;4486965;31;20130;-78
2022/03/12 08:40:31;;;;;;;10.77;3.47;;;;;;;4.27;24.26;100249.59;4486451;32;20115;-78
2022/03/12 08:42:56;;;;;;;10.95;3.53;;;;;;;4.40;24.60;100252.97;4485108;32;20118;-78
2022/03/12 08:45:23;;;;;;;12.90;3.90;;;;;;;4.31;24.54;100246.09;4487020;31;20093;-78
2022/03/12 08:47:48;;;;;;;12.85;4.15;;;;;;;4.28;24.17;100246.09;4485781;32;20128;-78
2022/03/12 08:50:15;;;;;;;12.10;3.83;;;;;;;4.23;24.20;100242.62;4485882;32;20119;-78
2022/03/12 08:52:42;;;;;;;12.05;3.70;;;;;;;4.33;23.70;100241.72;4485322;32;20083;-78
2022/03/12 08:55:09;;;;;;;13.52;3.53;;;;;;;4.31;22.96;100241.72;4486708;31;20153;-78
2022/03/12 08:57:34;;;;;;;11.05;4.05;;;;;;;4.30;23.58;100245.19;4485374;32;20073;-79
2022/03/12 09:00:00;;;;;;;10.60;3.78;;;;;;;4.48;23.54;100245.97;4485315;32;20126;-79
2022/03/12 09:02:25;;;;;;;14.57;4.05;;;;;;;4.52;23.25;100245.94;4485329;32;20550;-78
2022/03/12 09:04:51;;;;;;;12.98;4.10;;;;;;;4.44;22.97;100247.75;4485377;32;20436;-78
2022/03/12 09:07:18;;;;;;;12.55;3.72;;;;;;;4.69;22.91;100242.34;4486438;31;20096;-78
2022/03/12 09:09:43;;;;;;;12.82;4.37;;;;;;;4.81;22.56;100241.38;4486386;31;20433;-78
2022/03/12 09:12:09;;;;;;;12.52;3.92;;;;;;;4.73;23.07;100242.31;4485279;32;20107;-78
2022/03/12 09:14:35;;;;;;;12.13;3.95;;;;;;;4.85;23.04;100240.50;4486496;31;20084;-78
2022/03/12 09:17:04;;;;;;;12.77;4.60;;;;;;;4.91;22.01;100249.16;4486473;31;20118;-78
2022/03/12 09:19:32;;;;;;;11.43;3.78;;;;;;;4.93;22.17;100236.09;4485095;32;20097;-78
2022/03/12 09:21:57;;;;;;;13.27;4.45;;;;;;;4.65;22.34;100241.50;4485212;32;20092;-78
2022/03/12 09:24:22;;;;;;;11.45;4.62;;;;;;;4.70;22.52;100241.47;4486255;31;20108;-78
2022/03/12 09:26:48;;;;;;;12.15;4.45;;;;;;;4.81;22.65;100237.06;4486214;32;20135;-78
2022/03/12 09:29:14;;;;;;;13.18;4.32;;;;;;;4.90;22.04;100231.72;4486231;31;20072;-79
2022/03/12 09:31:39;;;;;;;13.18;4.62;;;;;;;5.02;22.10;100232.50;4484892;32;20394;-79
2022/03/12 09:34:06;;;;;;;17.00;4.43;;;;;;;5.00;21.51;100227.28;4486135;31;20076;-79
2022/03/12 09:36:31;;;;;;;11.98;3.95;;;;;;;5.19;20.94;100232.38;4484942;32;20155;-78
2022/03/12 09:38:57;;;;;;;14.35;3.87;;;;;;;5.27;20.83;100235.75;4485854;31;20119;-78
2022/03/12 09:41:22;;;;;;;11.38;3.80;;;;;;;5.47;20.81;100222.50;4486062;31;20080;-78
2022/03/12 09:43:48;;;;;;;11.50;3.83;;;;;;;5.51;20.89;100221.59;4485905;31;20148;-78
2022/03/12 09:46:13;;;;;;;13.90;4.00;;;;;;;5.64;21.01;100217.97;4485971;31;20124;-78
2022/03/12 09:48:38;;;;;;;13.02;4.22;;;;;;;5.64;20.41;100217.97;4484743;32;20097;-78
2022/03/12 09:51:06;;;;;;;13.10;4.00;;;;;;;5.66;20.57;100213.59;4471506;32;20092;-78
2022/03/12 09:53:33;;;;;;;12.85;4.22;;;;;;;5.54;20.72;100213.69;4487224;31;20103;-79
2022/03/12 09:55:58;;;;;;;11.93;3.70;;;;;;;5.58;20.88;100217.16;4488317;31;20492;-78
2022/03/12 09:58:24;;;;;;;10.82;3.83;;;;;;;5.73;20.59;100206.50;4473802;32;20099;-79
2022/03/12 10:00:49;;;;;;;11.73;3.60;;;;;;;5.79;20.23;100208.19;4487091;32;20119;-78
2022/03/12 10:03:15;;;;;;;11.07;3.78;;;;;;;5.71;20.05;100209.16;4488136;31;20107;-78
2022/03/12 10:05:41;;;;;;;11.23;3.92;;;;;;;5.77;20.40;100208.19;4487141;32;20100;-78
2022/03/12 10:08:06;;;;;;;14.05;3.75;;;;;;;5.70;20.34;100215.28;4488284;31;20441;-78
2022/03/12 10:10:32;;;;;;;11.48;4.00;;;;;;;5.77;20.16;100209.97;4488154;31;20092;-78
2022/03/12 10:12:58;;;;;;;12.30;3.80;;;;;;;5.67;20.24;100214.44;4488267;31;20076;-78
2022/03/12 10:15:23;;;;;;;10.68;3.30;;;;;;;5.49;20.42;100203.31;4486954;32;20162;-78
2022/03/12 10:17:49;;;;;;;10.77;3.45;;;;;;;5.80;19.98;100202.09;4488130;31;20153;-78
2022/03/12 10:20:15;;;;;;;10.32;3.60;;;;;;;5.87;20.21;100193.25;4473483;32;20096;-78
2022/03/12 10:22:42;;;;;;;11.73;3.75;;;;;;;5.93;20.72;100208.00;4473517;32;20487;-79
2022/03/12 10:25:08;;;;;;;13.52;3.28;;;;;;;5.92;20.53;100199.31;4486679;32;20104;-79
2022/03/12 10:27:35;;;;;;;9.98;3.25;;;;;;;5.96;19.71;100202.78;4487891;31;20122;-78
2022/03/12 10:30:01;;;;;;;13.07;4.35;;;;;;;5.84;20.00;100202.03;4486621;32;20148;-78
2022/03/12 10:32:29;;;;;;;14.02;3.97;;;;;;;5.91;20.01;100208.06;4486619;32;20096;-78
2022/03/12 10:35:01;;;;;;;10.45;3.78;;;;;;;5.88;19.88;100202.84;4473365;32;20109;-79
2022/03/12 10:37:30;;;;;;;10.43;3.37;;;;;;;6.02;19.73;100194.84;4486585;32;20163;-79
2022/03/12 10:40:10;;;;;;;10.68;3.67;;;;;;;6.01;20.08;100198.38;4487743;32;20156;-78
2022/03/12 10:42:43;;;;;;;11.23;3.70;;;;;;;6.14;19.57;100194.69;4487716;31;20485;-79
2022/03/12 10:45:11;;;;;;;10.90;3.70;;;;;;;6.09;19.95;100192.13;4486516;32;20096;-79
2022/03/12 10:47:41;;;;;;;;;;;;;;;6.06;19.87;100192.16;4486918;32;20104;-79
2022/03/12 10:50:11;;;;;;;;;;;;;;;6.15;20.05;100192.94;4488144;31;20008;-78
2022/03/12 10:52:41;;;;;;;12.07;3.70;;;;;;;6.33;19.57;100182.19;4486343;32;19972;-78
2022/03/12 10:55:14;;;;;;;11.40;3.45;;;;;;;6.39;19.50;100189.09;4486568;32;20132;-78
2022/03/12 10:57:39;;;;;;;10.88;3.75;;;;;;;6.34;19.30;100183.09;4487716;31;20096;-78
2022/03/12 11:00:09;;;;;;;12.48;3.70;;;;;;;6.43;19.36;100168.09;4487470;32;20084;-78
2022/03/12 11:02:35;;;;;;;10.38;3.67;;;;;;;6.42;19.53;100175.97;4487537;31;20088;-78
2022/03/12 11:05:04;;;;;;;10.25;3.22;;;;;;;6.25;19.34;100176.22;4485556;32;20100;-78
2022/03/12 11:07:30;;;;;;;12.45;3.42;;;;;;;6.46;19.33;100172.41;4486431;32;20519;-79
2022/03/12 11:09:56;;;;;;;11.12;3.50;;;;;;;6.25;18.69;100165.75;4486154;32;20107;-78
2022/03/12 11:12:35;;;;;;;9.68;3.15;;;;;;;6.26;18.74;100159.66;4487548;31;20084;-78
2022/03/12 11:15:15;;;;;;;12.07;3.45;;;;;;;6.30;19.08;100156.09;4486363;32;20527;-78
2022/03/12 11:17:44;;;;;;;11.10;3.25;;;;;;;6.42;19.26;100153.28;4486208;32;20757;-78
2022/03/12 11:20:14;;;;;;;9.18;3.10;;;;;;;6.53;19.57;100154.84;4487496;31;20155;-78
2022/03/12 11:22:40;;;;;;;10.32;3.03;;;;;;;6.42;19.45;100148.03;4486372;32;20415;-79
2022/03/12 11:25:11;;;;;;;11.77;3.83;;;;;;;6.55;19.04;100145.22;4486249;32;20127;-78
2022/03/12 11:27:36;;;;;;;10.63;3.40;;;;;;;6.53;18.74;100140.03;4486330;32;20096;-78
2022/03/12 11:30:08;;;;;;;10.63;3.40;;;;;;;6.33;19.41;100136.84;4473089;32;20145;-79